Time;durP1;ratioP1;P1;durP2;ratioP2;P2;SDS_P1;SDS_P2;PMS_P1;PMS_P2;Temp;Humidity;BMP_temperature;BMP_pressure;BME280_temperature;BME280_humidity;BME280_pressure;Samples;Min_cycle;Max_cycle;Signal;HPM_P1;HPM_P2
2024/02/21 00:02:20;;;;;;;8.45;3.17;;;;;;;;;;7412802;19;19915;-83
2024/02/21 00:05:04;;;;;;;8.45;3.13;;;;;;;;;;7414864;19;19928;-84
2024/02/21 00:07:50;;;;;;;11.77;3.33;;;;;;;;;;7412649;19;19940;-84
2024/02/21 00:10:35;;;;;;;13.30;3.38;;;;;;;;;;7412672;19;19911;-84
2024/02/21 00:13:22;;;;;;;13.82;3.75;;;;;;;;;;7408909;19;19926;-84
2024/02/21 00:16:07;;;;;;;10.23;3.55;;;;;;;;;;7412542;19;19922;-84
2024/02/21 00:18:51;;;;;;;12.00;3.20;;;;;;;;;;7406072;19;19910;-84
2024/02/21 00:21:35;;;;;;;10.50;4.00;;;;;;;;;;7407025;19;19970;-84
2024/02/21 00:24:24;;;;;;;13.25;3.42;;;;;;;;;;7405708;19;19925;-84
2024/02/21 00:27:11;;;;;;;9.07;3.08;;;;;;;;;;7406498;19;19956;-84
2024/02/21 00:29:58;;;;;;;7.88;3.17;;;;;;;;;;7404804;19;20376;-84
2024/02/21 00:32:44;;;;;;;9.20;3.60;;;;;;;;;;7406239;19;20341;-84
2024/02/21 00:35:29;;;;;;;8.77;3.67;;;;;;;;;;7401206;19;20372;-84
2024/02/21 00:38:13;;;;;;;12.57;3.85;;;;;;;;;;7407039;19;19919;-84
2024/02/21 00:41:02;;;;;;;7.30;3.15;;;;;;;;;;7412392;19;19936;-84
2024/02/21 00:43:48;;;;;;;7.05;3.38;;;;;;;;;;7412313;19;19923;-84
2024/02/21 00:46:38;;;;;;;8.40;3.08;;;;;;;;;;7410464;19;19915;-84
2024/02/21 00:49:25;;;;;;;11.38;3.63;;;;;;;;;;7412981;19;19929;-84
2024/02/21 00:52:09;;;;;;;11.38;3.22;;;;;;;;;;7412193;19;19918;-84
2024/02/21 00:54:58;;;;;;;8.40;3.25;;;;;;;;;;7412516;19;20249;-84
2024/02/21 00:57:42;;;;;;;4.72;2.75;;;;;;;;;;7412273;19;19940;-84
2024/02/21 01:00:26;;;;;;;9.38;4.10;;;;;;;;;;7412004;19;19974;-84
2024/02/21 01:03:16;;;;;;;8.75;3.13;;;;;;;;;;7412550;19;19919;-84
2024/02/21 01:06:02;;;;;;;7.13;3.28;;;;;;;;;;7409755;19;20618;-84
2024/02/21 01:08:47;;;;;;;10.00;3.17;;;;;;;;;;7411890;19;20363;-84
2024/02/21 01:11:38;;;;;;;8.07;3.25;;;;;;;;;;7403429;19;19947;-84
2024/02/21 01:14:25;;;;;;;9.75;3.13;;;;;;;;;;7402887;19;19956;-84
2024/02/21 01:17:14;;;;;;;9.20;3.40;;;;;;;;;;7402555;19;19918;-84
2024/02/21 01:20:05;;;;;;;8.95;3.42;;;;;;;;;;7402723;19;19921;-84
2024/02/21 01:22:52;;;;;;;8.43;3.33;;;;;;;;;;7400940;19;20253;-84
2024/02/21 01:25:38;;;;;;;11.60;3.65;;;;;;;;;;7407781;19;19926;-84
2024/02/21 01:28:22;;;;;;;8.82;3.25;;;;;;;;;;7400114;19;19922;-84
2024/02/21 01:31:10;;;;;;;13.63;4.10;;;;;;;;;;7403430;19;19917;-84
2024/02/21 01:33:57;;;;;;;8.10;3.25;;;;;;;;;;7404441;19;21411;-84
2024/02/21 01:36:46;;;;;;;12.20;4.00;;;;;;;;;;7404518;19;19911;-84
2024/02/21 01:39:33;;;;;;;9.05;3.97;;;;;;;;;;7405230;19;19915;-84
2024/02/21 01:42:20;;;;;;;9.90;3.22;;;;;;;;;;7410361;19;19922;-84
2024/02/21 01:45:07;;;;;;;9.23;3.03;;;;;;;;;;7410147;19;19934;-84
2024/02/21 01:47:56;;;;;;;8.95;3.38;;;;;;;;;;7409687;19;19914;-84
2024/02/21 01:50:43;;;;;;;7.15;3.05;;;;;;;;;;7408091;19;19926;-84
2024/02/21 01:53:37;;;;;;;13.65;3.92;;;;;;;;;;7411106;19;19922;-84
2024/02/21 01:56:22;;;;;;;7.00;3.85;;;;;;;;;;7407369;19;20333;-84
2024/02/21 01:59:06;;;;;;;7.78;3.25;;;;;;;;;;7409396;19;19939;-84
2024/02/21 02:01:54;;;;;;;9.10;3.13;;;;;;;;;;7410362;19;19922;-84
2024/02/21 02:04:43;;;;;;;9.75;3.72;;;;;;;;;;7409927;19;19929;-84
2024/02/21 02:07:27;;;;;;;11.27;3.50;;;;;;;;;;7408659;19;19922;-84
2024/02/21 02:10:16;;;;;;;11.43;3.67;;;;;;;;;;7408443;19;19922;-84
2024/02/21 02:13:03;;;;;;;12.68;3.22;;;;;;;;;;7406630;19;19974;-84
2024/02/21 02:15:51;;;;;;;6.53;3.08;;;;;;;;;;7410560;19;19923;-84
2024/02/21 02:18:38;;;;;;;6.85;3.20;;;;;;;;;;7416978;19;19955;-84
2024/02/21 02:21:29;;;;;;;6.05;3.10;;;;;;;;;;7409844;19;19914;-84
2024/02/21 02:24:22;;;;;;;8.80;3.83;;;;;;;;;;7410136;19;19926;-84
2024/02/21 02:27:06;;;;;;;7.63;3.78;;;;;;;;;;7411947;19;19952;-84
2024/02/21 02:29:55;;;;;;;7.68;3.33;;;;;;;;;;7414277;19;19918;-84
2024/02/21 02:32:42;;;;;;;8.40;3.40;;;;;;;;;;7410927;19;19942;-84
2024/02/21 02:35:28;;;;;;;8.23;3.03;;;;;;;;;;7410652;19;19926;-84
2024/02/21 02:38:13;;;;;;;7.25;3.03;;;;;;;;;;7406341;19;19925;-84
2024/02/21 02:40:59;;;;;;;14.82;4.47;;;;;;;;;;7408405;19;20423;-84
2024/02/21 02:43:44;;;;;;;9.50;3.28;;;;;;;;;;7411527;19;19914;-84
2024/02/21 02:46:31;;;;;;;5.32;3.13;;;;;;;;;;7413420;19;19950;-84
2024/02/21 02:49:17;;;;;;;12.77;3.75;;;;;;;;;;7416326;19;19923;-84
2024/02/21 02:52:04;;;;;;;9.35;2.92;;;;;;;;;;7411860;19;19933;-84
2024/02/21 02:54:51;;;;;;;11.40;3.65;;;;;;;;;;7413010;19;19914;-84
2024/02/21 02:57:41;;;;;;;7.90;2.90;;;;;;;;;;7412549;19;19923;-84
2024/02/21 03:00:28;;;;;;;10.95;3.88;;;;;;;;;;7413000;19;19922;-84
2024/02/21 03:03:17;;;;;;;9.20;3.25;;;;;;;;;;7410322;19;19986;-84
2024/02/21 03:06:04;;;;;;;9.00;3.42;;;;;;;;;;7414061;19;19922;-84
2024/02/21 03:08:54;;;;;;;11.75;3.42;;;;;;;;;;7412282;19;19915;-84
2024/02/21 03:11:44;;;;;;;10.57;3.28;;;;;;;;;;7414324;19;19954;-84
2024/02/21 03:14:35;;;;;;;8.40;2.63;;;;;;;;;;7409085;19;19919;-84
2024/02/21 03:17:20;;;;;;;8.07;3.92;;;;;;;;;;7398883;19;19923;-84
2024/02/21 03:20:05;;;;;;;10.18;3.05;;;;;;;;;;7401224;19;19907;-84
2024/02/21 03:22:49;;;;;;;11.40;2.95;;;;;;;;;;7403276;19;20246;-84
2024/02/21 03:25:33;;;;;;;7.75;3.25;;;;;;;;;;7399844;19;19977;-84
2024/02/21 03:28:20;;;;;;;15.75;4.13;;;;;;;;;;7398705;19;19915;-84
2024/02/21 03:31:07;;;;;;;8.52;2.47;;;;;;;;;;7405378;19;19929;-84
2024/02/21 03:33:51;;;;;;;7.47;3.45;;;;;;;;;;7411093;19;19922;-84
2024/02/21 03:36:38;;;;;;;6.38;2.88;;;;;;;;;;7414736;19;19933;-84
2024/02/21 03:39:27;;;;;;;12.05;3.10;;;;;;;;;;7412812;19;19915;-84
2024/02/21 03:42:14;;;;;;;8.85;3.10;;;;;;;;;;7412693;19;19919;-84
2024/02/21 03:45:00;;;;;;;6.68;2.92;;;;;;;;;;7407317;19;19918;-84
2024/02/21 03:50:38;;;;;;;6.35;2.90;;;;;;;;;;7415674;19;19920;-81
2024/02/21 03:53:22;;;;;;;9.32;3.13;;;;;;;;;;7415381;19;19930;-81
2024/02/21 03:56:09;;;;;;;5.13;2.55;;;;;;;;;;7413402;19;19915;-81
2024/02/21 03:58:53;;;;;;;6.45;2.60;;;;;;;;;;7415928;19;19928;-81
2024/02/21 04:01:38;;;;;;;9.48;3.10;;;;;;;;;;7412881;19;19922;-81
2024/02/21 04:04:23;;;;;;;8.80;2.58;;;;;;;;;;7415436;19;20020;-81
2024/02/21 04:07:12;;;;;;;10.85;3.00;;;;;;;;;;7406581;19;19910;-81
2024/02/21 04:09:56;;;;;;;4.40;2.55;;;;;;;;;;7408233;19;20421;-80
2024/02/21 04:12:45;;;;;;;5.22;2.90;;;;;;;;;;7408099;19;19951;-81
2024/02/21 04:15:32;;;;;;;5.50;2.38;;;;;;;;;;7410615;19;19918;-81
2024/02/21 04:18:18;;;;;;;12.85;3.33;;;;;;;;;;7406072;19;19922;-81
2024/02/21 04:21:02;;;;;;;7.57;2.50;;;;;;;;;;7406576;19;19970;-81
2024/02/21 04:23:49;;;;;;;7.28;3.10;;;;;;;;;;7407662;19;20539;-81
2024/02/21 04:26:41;;;;;;;7.18;2.75;;;;;;;;;;7408345;19;19914;-80
2024/02/21 04:29:30;;;;;;;13.25;3.00;;;;;;;;;;7404560;19;19919;-80
2024/02/21 04:32:17;;;;;;;8.13;2.80;;;;;;;;;;7405363;19;19914;-80
2024/02/21 04:35:01;;;;;;;9.57;3.13;;;;;;;;;;7407713;19;19974;-80
2024/02/21 04:37:45;;;;;;;9.00;2.65;;;;;;;;;;7405310;19;19931;-79
2024/02/21 04:40:33;;;;;;;8.10;2.60;;;;;;;;;;7403389;19;19945;-80
2024/02/21 04:43:17;;;;;;;5.95;2.50;;;;;;;;;;7405417;19;19942;-80
2024/02/21 04:46:01;;;;;;;8.60;3.17;;;;;;;;;;7407126;19;20256;-80
2024/02/21 04:48:50;;;;;;;6.32;2.50;;;;;;;;;;7405978;19;19918;-80
2024/02/21 04:51:37;;;;;;;3.90;2.28;;;;;;;;;;7406251;19;20593;-80
2024/02/21 04:54:21;;;;;;;9.73;3.30;;;;;;;;;;7402380;19;20006;-80
2024/02/21 04:57:10;;;;;;;10.45;2.78;;;;;;;;;;7403102;19;19929;-80
2024/02/21 04:59:56;;;;;;;5.15;2.40;;;;;;;;;;7404210;19;19928;-80
2024/02/21 05:02:46;;;;;;;4.90;2.33;;;;;;;;;;7407522;19;19922;-80
2024/02/21 05:05:30;;;;;;;5.35;2.35;;;;;;;;;;7401401;19;19914;-80
2024/02/21 05:08:16;;;;;;;9.48;2.92;;;;;;;;;;7401346;19;20341;-80
2024/02/21 05:11:01;;;;;;;10.32;2.45;;;;;;;;;;7404604;19;20497;-80
2024/02/21 05:13:50;;;;;;;11.43;2.92;;;;;;;;;;7404213;19;19941;-80
2024/02/21 05:16:36;;;;;;;6.22;2.70;;;;;;;;;;7403386;19;19919;-80
2024/02/21 05:19:21;;;;;;;5.22;2.67;;;;;;;;;;7410846;19;20439;-80
2024/02/21 05:22:05;;;;;;;9.40;2.63;;;;;;;;;;7409817;19;20371;-80
2024/02/21 05:24:49;;;;;;;5.20;2.30;;;;;;;;;;7408672;19;19929;-79
2024/02/21 05:27:38;;;;;;;8.65;3.20;;;;;;;;;;7408757;19;19926;-80
2024/02/21 05:30:27;;;;;;;5.53;3.13;;;;;;;;;;7404523;19;19926;-80
2024/02/21 05:33:12;;;;;;;10.05;3.35;;;;;;;;;;7403640;19;20399;-80
2024/02/21 05:35:59;;;;;;;7.13;2.55;;;;;;;;;;7412115;19;19933;-79
2024/02/21 05:38:45;;;;;;;7.47;2.88;;;;;;;;;;7413921;19;19919;-79
2024/02/21 05:41:34;;;;;;;7.65;2.60;;;;;;;;;;7411020;19;19942;-80
2024/02/21 05:44:22;;;;;;;5.57;3.10;;;;;;;;;;7409216;19;19919;-79
2024/02/21 05:47:13;;;;;;;8.02;2.92;;;;;;;;;;7411014;19;19918;-80
2024/02/21 05:50:02;;;;;;;10.60;3.65;;;;;;;;;;7415358;19;19918;-80
2024/02/21 05:52:48;;;;;;;10.05;3.60;;;;;;;;;;7418357;19;19934;-79
2024/02/21 05:55:35;;;;;;;7.63;3.88;;;;;;;;;;7418770;19;20340;-80
2024/02/21 05:58:21;;;;;;;10.20;4.97;;;;;;;;;;7415250;19;19939;-80
2024/02/21 06:01:06;;;;;;;11.13;4.25;;;;;;;;;;7414706;19;20389;-80
2024/02/21 06:03:56;;;;;;;6.22;3.00;;;;;;;;;;7417737;19;19923;-79
2024/02/21 06:06:44;;;;;;;6.93;3.10;;;;;;;;;;7416380;19;20309;-80
2024/02/21 06:09:33;;;;;;;6.43;3.13;;;;;;;;;;7412279;19;19945;-80
2024/02/21 06:12:19;;;;;;;6.78;3.13;;;;;;;;;;7410540;19;19903;-80
2024/02/21 06:15:03;;;;;;;11.27;2.83;;;;;;;;;;7407320;19;19915;-80
2024/02/21 06:17:50;;;;;;;7.95;2.63;;;;;;;;;;7404325;19;19974;-80
2024/02/21 06:20:40;;;;;;;8.38;3.25;;;;;;;;;;7407363;19;20318;-80
2024/02/21 06:23:24;;;;;;;7.82;2.97;;;;;;;;;;7407638;19;19986;-80
2024/02/21 06:26:08;;;;;;;8.05;2.80;;;;;;;;;;7408173;19;19926;-81
2024/02/21 06:28:55;;;;;;;7.95;2.80;;;;;;;;;;7407517;19;20444;-80
2024/02/21 06:31:39;;;;;;;5.22;3.30;;;;;;;;;;7406459;19;19929;-79
2024/02/21 06:34:24;;;;;;;11.75;3.47;;;;;;;;;;7411994;19;19986;-80
2024/02/21 06:37:11;;;;;;;12.38;3.65;;;;;;;;;;7414015;19;19966;-80
2024/02/21 06:39:57;;;;;;;5.30;2.97;;;;;;;;;;7416183;19;19919;-80
2024/02/21 06:42:41;;;;;;;9.43;3.13;;;;;;;;;;7417581;19;20264;-80
2024/02/21 06:45:26;;;;;;;5.88;2.97;;;;;;;;;;7413130;19;19926;-80
2024/02/21 06:48:10;;;;;;;8.55;3.50;;;;;;;;;;7405975;19;19906;-80
2024/02/21 06:50:54;;;;;;;6.90;3.00;;;;;;;;;;7408892;19;19930;-80
2024/02/21 06:53:41;;;;;;;7.07;2.88;;;;;;;;;;7412776;19;20324;-80
2024/02/21 06:56:29;;;;;;;13.23;3.28;;;;;;;;;;7412159;19;19923;-80
2024/02/21 06:59:15;;;;;;;7.88;3.03;;;;;;;;;;7409112;19;19933;-79
2024/02/21 07:02:01;;;;;;;8.52;3.22;;;;;;;;;;7402938;19;20330;-79
2024/02/21 07:04:48;;;;;;;12.38;3.05;;;;;;;;;;7411675;19;19922;-79
2024/02/21 07:07:35;;;;;;;5.05;2.78;;;;;;;;;;7412092;19;20003;-79
2024/02/21 07:10:24;;;;;;;8.80;2.63;;;;;;;;;;7410924;19;19925;-78
2024/02/21 07:13:10;;;;;;;4.65;2.75;;;;;;;;;;7409766;19;19923;-80
2024/02/21 07:15:57;;;;;;;5.70;2.40;;;;;;;;;;7411047;19;19954;-78
2024/02/21 07:18:43;;;;;;;8.90;3.05;;;;;;;;;;7410203;19;20769;-79
2024/02/21 07:21:30;;;;;;;7.15;3.05;;;;;;;;;;7409110;19;19923;-79
2024/02/21 07:24:14;;;;;;;6.32;2.97;;;;;;;;;;7393681;19;19914;-79
2024/02/21 07:27:04;;;;;;;7.25;2.90;;;;;;;;;;7410171;19;20330;-79
2024/02/21 07:29:49;;;;;;;6.82;3.22;;;;;;;;;;7411559;19;19926;-80
2024/02/21 07:32:33;;;;;;;7.47;3.30;;;;;;;;;;7404673;19;19926;-81
2024/02/21 07:35:18;;;;;;;6.70;2.80;;;;;;;;;;7406466;19;19918;-79
2024/02/21 07:38:03;;;;;;;9.20;2.65;;;;;;;;;;7404295;19;19918;-79
2024/02/21 07:40:47;;;;;;;7.80;2.75;;;;;;;;;;7404866;19;19994;-79
2024/02/21 07:43:34;;;;;;;14.25;3.80;;;;;;;;;;7406872;19;19922;-79
2024/02/21 07:46:18;;;;;;;9.43;3.20;;;;;;;;;;7406641;19;19922;-79
2024/02/21 07:49:05;;;;;;;6.85;3.50;;;;;;;;;;7412692;19;19918;-79
2024/02/21 07:51:49;;;;;;;9.02;3.80;;;;;;;;;;7403221;19;19935;-81
2024/02/21 07:54:33;;;;;;;5.18;3.58;;;;;;;;;;7410389;19;19918;-79
2024/02/21 07:57:18;;;;;;;7.72;3.42;;;;;;;;;;7407695;19;19945;-80
2024/02/21 08:00:06;;;;;;;9.75;3.95;;;;;;;;;;7408063;19;19940;-80
2024/02/21 08:02:59;;;;;;;12.80;4.13;;;;;;;;;;7407696;19;19919;-80
2024/02/21 08:05:45;;;;;;;11.38;4.05;;;;;;;;;;7406804;19;19926;-80
2024/02/21 08:08:30;;;;;;;8.93;3.35;;;;;;;;;;7411080;19;19921;-80
2024/02/21 08:11:19;;;;;;;5.57;2.88;;;;;;;;;;7407269;19;19931;-80
2024/02/21 08:14:05;;;;;;;6.05;2.92;;;;;;;;;;7407838;19;19925;-79
2024/02/21 08:16:59;;;;;;;10.88;2.88;;;;;;;;;;7409458;19;19985;-80
2024/02/21 08:19:45;;;;;;;10.55;3.00;;;;;;;;;;7407230;19;19919;-79
2024/02/21 08:22:34;;;;;;;5.38;2.55;;;;;;;;;;7405886;19;19930;-79
2024/02/21 08:25:19;;;;;;;7.45;3.05;;;;;;;;;;7402110;19;19922;-80
2024/02/21 08:28:08;;;;;;;8.93;2.78;;;;;;;;;;7408446;19;19937;-79
2024/02/21 08:30:52;;;;;;;6.72;2.63;;;;;;;;;;7404226;19;19926;-79
2024/02/21 08:33:41;;;;;;;5.32;2.38;;;;;;;;;;7408901;19;20377;-80
2024/02/21 08:36:28;;;;;;;4.95;2.53;;;;;;;;;;7407756;19;19914;-79
2024/02/21 08:39:17;;;;;;;9.82;2.90;;;;;;;;;;7404069;19;19919;-80
2024/02/21 08:42:04;;;;;;;7.18;2.70;;;;;;;;;;7403725;19;20875;-79
2024/02/21 08:44:51;;;;;;;6.60;2.75;;;;;;;;;;7408382;19;19922;-79
2024/02/21 08:47:38;;;;;;;8.07;3.50;;;;;;;;;;7403357;19;19919;-79
2024/02/21 08:50:27;;;;;;;5.18;2.75;;;;;;;;;;7408550;19;20336;-79
2024/02/21 08:53:12;;;;;;;6.55;2.63;;;;;;;;;;7407781;19;19910;-79
2024/02/21 08:55:56;;;;;;;5.78;2.42;;;;;;;;;;7394581;19;19923;-79
2024/02/21 08:58:43;;;;;;;8.32;2.72;;;;;;;;;;7402417;19;20403;-79
2024/02/21 09:01:34;;;;;;;6.53;2.70;;;;;;;;;;7404040;19;19914;-79
2024/02/21 09:04:20;;;;;;;9.65;2.53;;;;;;;;;;7404657;19;20291;-79
2024/02/21 09:07:07;;;;;;;8.45;2.80;;;;;;;;;;7403123;19;19946;-79
2024/02/21 09:09:54;;;;;;;5.57;2.38;;;;;;;;;;7407019;19;19917;-79
2024/02/21 09:12:40;;;;;;;9.73;3.00;;;;;;;;;;7403394;19;20329;-79
2024/02/21 09:15:27;;;;;;;11.35;2.90;;;;;;;;;;7401373;19;20341;-78
2024/02/21 09:18:16;;;;;;;6.25;2.33;;;;;;;;;;7401593;19;19923;-78
2024/02/21 09:21:05;;;;;;;8.93;2.88;;;;;;;;;;7406130;19;19926;-80
2024/02/21 09:23:57;;;;;;;5.28;2.40;;;;;;;;;;7400497;19;20344;-78
2024/02/21 09:26:43;;;;;;;4.90;2.45;;;;;;;;;;7406883;19;19994;-78
2024/02/21 09:29:30;;;;;;;7.05;2.50;;;;;;;;;;7412801;19;19922;-78
2024/02/21 09:32:18;;;;;;;6.28;2.42;;;;;;;;;;7412298;19;19961;-79
2024/02/21 09:35:05;;;;;;;8.32;3.05;;;;;;;;;;7413898;19;20250;-80
2024/02/21 09:37:54;;;;;;;7.40;2.55;;;;;;;;;;7411088;19;19941;-78
2024/02/21 09:40:47;;;;;;;7.07;2.50;;;;;;;;;;7414028;19;20009;-79
2024/02/21 09:43:35;;;;;;;6.88;2.45;;;;;;;;;;7414599;19;19982;-78
2024/02/21 09:46:21;;;;;;;4.78;2.67;;;;;;;;;;7405905;19;19914;-84
2024/02/21 09:49:14;;;;;;;6.97;2.17;;;;;;;;;;7412637;19;19914;-83
2024/02/21 09:52:03;;;;;;;9.70;2.55;;;;;;;;;;7412293;19;19926;-83
2024/02/21 09:54:52;;;;;;;4.50;2.47;;;;;;;;;;7410981;19;19937;-83
2024/02/21 09:57:40;;;;;;;7.43;2.75;;;;;;;;;;7416199;19;19918;-83
2024/02/21 10:00:27;;;;;;;9.30;2.78;;;;;;;;;;7416732;19;20384;-83
2024/02/21 10:03:13;;;;;;;6.53;2.40;;;;;;;;;;7415476;19;19906;-83
2024/02/21 10:06:02;;;;;;;6.05;2.70;;;;;;;;;;7412631;19;19914;-83
2024/02/21 10:08:55;;;;;;;5.88;2.17;;;;;;;;;;7408935;19;19922;-83
2024/02/21 10:11:41;;;;;;;5.30;2.30;;;;;;;;;;7415682;19;19922;-84
2024/02/21 10:14:28;;;;;;;7.35;2.88;;;;;;;;;;7412570;19;20554;-84
2024/02/21 10:17:20;;;;;;;8.05;2.40;;;;;;;;;;7413394;19;19945;-83
2024/02/21 10:20:11;;;;;;;6.75;2.55;;;;;;;;;;7408118;19;20002;-82
2024/02/21 10:23:07;;;;;;;7.63;3.33;;;;;;;;;;7413798;19;20262;-83
2024/02/21 10:25:52;;;;;;;5.88;2.15;;;;;;;;;;7404901;19;20416;-83
2024/02/21 10:28:36;;;;;;;5.43;2.30;;;;;;;;;;7408296;19;20020;-83
2024/02/21 10:31:29;;;;;;;7.15;2.25;;;;;;;;;;7407690;19;19914;-82
2024/02/21 10:34:19;;;;;;;3.65;2.00;;;;;;;;;;7409443;19;19918;-83
2024/02/21 10:37:10;;;;;;;5.40;2.38;;;;;;;;;;7409210;19;19914;-83
2024/02/21 10:39:56;;;;;;;4.68;2.30;;;;;;;;;;7410079;19;19933;-82
2024/02/21 10:42:46;;;;;;;4.03;2.13;;;;;;;;;;7405875;19;19950;-82
2024/02/21 10:45:34;;;;;;;7.55;2.28;;;;;;;;;;7404048;19;19915;-82
2024/02/21 10:48:31;;;;;;;6.70;2.42;;;;;;;;;;7401457;19;19923;-83
2024/02/21 10:51:20;;;;;;;8.02;3.25;;;;;;;;;;7408414;19;19918;-83
2024/02/21 10:54:23;;;;;;;9.30;3.13;;;;;;;;;;7410494;19;20010;-83
2024/02/21 10:57:15;;;;;;;19.52;4.78;;;;;;;;;;7407143;19;19948;-83
2024/02/21 11:00:02;;;;;;;23.25;7.20;;;;;;;;;;7409347;19;20310;-82
2024/02/21 11:02:47;;;;;;;11.65;3.63;;;;;;;;;;7401395;19;19942;-83
2024/02/21 11:05:35;;;;;;;9.05;2.40;;;;;;;;;;7404666;19;19910;-83
2024/02/21 11:08:20;;;;;;;6.38;2.13;;;;;;;;;;7401521;19;19925;-83
2024/02/21 11:11:07;;;;;;;10.45;2.83;;;;;;;;;;7410992;19;19975;-82
2024/02/21 11:13:55;;;;;;;12.52;2.63;;;;;;;;;;7409935;19;20341;-83
2024/02/21 11:16:43;;;;;;;4.57;1.70;;;;;;;;;;7402127;19;19918;-83
2024/02/21 11:19:32;;;;;;;9.70;2.53;;;;;;;;;;7407411;19;19925;-82
2024/02/21 11:22:24;;;;;;;7.10;2.20;;;;;;;;;;7402429;19;19922;-83
2024/02/21 11:25:11;;;;;;;5.82;2.40;;;;;;;;;;7406847;19;19933;-82
2024/02/21 11:28:03;;;;;;;8.68;2.70;;;;;;;;;;7403116;19;19944;-82
2024/02/21 11:30:51;;;;;;;5.88;1.77;;;;;;;;;;7410710;19;19926;-82
2024/02/21 11:33:37;;;;;;;;;;;;;;;;;;7415235;19;19918;-82
2024/02/21 11:36:28;;;;;;;11.27;3.30;;;;;;;;;;7416061;19;19947;-82
2024/02/21 11:42:31;;;;;;;10.05;2.85;;;;;;;;;;7416194;19;19915;-82
2024/02/21 11:45:20;;;;;;;;;;;;;;;;;;7416542;19;19976;-82
2024/02/21 11:48:05;;;;;;;5.57;2.20;;;;;;;;;;7411475;19;19944;-83
2024/02/21 11:50:57;;;;;;;4.30;1.67;;;;;;;;;;7414493;19;19958;-83
2024/02/21 11:53:42;;;;;;;3.17;1.45;;;;;;;;;;7414971;19;19919;-83
2024/02/21 11:56:29;;;;;;;4.30;1.42;;;;;;;;;;7415316;19;20012;-82
2024/02/21 11:59:20;;;;;;;3.42;2.20;;;;;;;;;;7416487;19;19986;-82
2024/02/21 12:02:05;;;;;;;2.78;1.40;;;;;;;;;;7414327;19;19993;-82
2024/02/21 12:04:54;;;;;;;3.38;1.83;;;;;;;;;;7414491;19;20227;-82
2024/02/21 12:07:40;;;;;;;5.18;1.67;;;;;;;;;;7412593;19;19915;-82
2024/02/21 12:10:24;;;;;;;5.75;2.10;;;;;;;;;;7409646;19;20638;-83
2024/02/21 12:13:10;;;;;;;4.00;1.58;;;;;;;;;;7408346;19;19918;-82
2024/02/21 12:15:59;;;;;;;5.45;1.50;;;;;;;;;;7406556;19;20333;-82
2024/02/21 12:18:45;;;;;;;3.03;1.30;;;;;;;;;;7406842;19;19918;-82
2024/02/21 12:21:36;;;;;;;7.15;1.50;;;;;;;;;;7413457;19;19936;-82
2024/02/21 12:24:24;;;;;;;7.03;2.15;;;;;;;;;;7405790;19;20250;-82
2024/02/21 12:27:10;;;;;;;;;;;;;;;;;;7409309;19;19925;-83
2024/02/21 12:29:55;;;;;;;3.55;1.70;;;;;;;;;;7411041;19;19917;-83
2024/02/21 12:32:42;;;;;;;4.95;1.52;;;;;;;;;;7406919;19;19918;-83
2024/02/21 12:35:26;;;;;;;4.25;1.58;;;;;;;;;;7408688;19;19919;-82
2024/02/21 12:38:15;;;;;;;4.40;1.38;;;;;;;;;;7404588;19;19921;-83
2024/02/21 12:41:00;;;;;;;4.60;1.42;;;;;;;;;;7404561;19;19940;-82
2024/02/21 12:43:44;;;;;;;4.30;1.50;;;;;;;;;;7407464;19;19911;-82
2024/02/21 12:46:33;;;;;;;5.18;1.40;;;;;;;;;;7406992;19;19923;-82
2024/02/21 12:49:22;;;;;;;6.03;1.52;;;;;;;;;;7404933;19;19913;-83
2024/02/21 12:52:10;;;;;;;5.63;1.23;;;;;;;;;;7404384;19;19918;-83
2024/02/21 12:54:58;;;;;;;6.25;1.52;;;;;;;;;;7403692;19;20099;-83
2024/02/21 12:57:42;;;;;;;6.60;1.88;;;;;;;;;;7409992;19;19907;-83
2024/02/21 13:00:27;;;;;;;5.10;1.40;;;;;;;;;;7410316;19;20292;-83
2024/02/21 13:03:14;;;;;;;6.55;1.55;;;;;;;;;;7410354;19;19921;-83
2024/02/21 13:06:01;;;;;;;4.63;1.67;;;;;;;;;;7407959;19;19919;-83
2024/02/21 13:08:45;;;;;;;6.20;1.38;;;;;;;;;;7408630;19;19920;-83
2024/02/21 13:11:32;;;;;;;4.80;1.65;;;;;;;;;;7408998;19;19966;-82
2024/02/21 13:14:22;;;;;;;10.68;1.85;;;;;;;;;;7410381;19;19990;-82
2024/02/21 13:17:09;;;;;;;1.67;1.20;;;;;;;;;;7409307;19;19915;-82
2024/02/21 13:19:55;;;;;;;5.65;1.20;;;;;;;;;;7412382;19;19926;-82
2024/02/21 13:22:45;;;;;;;5.30;1.70;;;;;;;;;;7410850;19;19933;-82
2024/02/21 13:25:31;;;;;;;3.45;1.25;;;;;;;;;;7412113;19;19918;-82
2024/02/21 13:28:16;;;;;;;9.13;1.63;;;;;;;;;;7411526;19;19929;-82
2024/02/21 13:31:05;;;;;;;4.65;1.08;;;;;;;;;;7411654;19;19926;-82
2024/02/21 13:33:50;;;;;;;2.78;1.00;;;;;;;;;;7411956;19;19947;-82
2024/02/21 13:36:34;;;;;;;4.97;1.30;;;;;;;;;;7414818;19;19933;-82
2024/02/21 13:39:21;;;;;;;2.63;1.15;;;;;;;;;;7413022;19;19923;-82
2024/02/21 13:42:08;;;;;;;4.80;1.40;;;;;;;;;;7406645;19;19914;-82
2024/02/21 13:44:52;;;;;;;4.93;1.63;;;;;;;;;;7410918;19;19922;-82
2024/02/21 13:47:41;;;;;;;2.65;1.60;;;;;;;;;;7410155;19;20321;-82
2024/02/21 13:50:31;;;;;;;4.30;1.48;;;;;;;;;;7412406;19;19927;-84
2024/02/21 13:53:18;;;;;;;3.28;1.10;;;;;;;;;;7410319;19;19918;-83
2024/02/21 13:56:05;;;;;;;4.72;1.30;;;;;;;;;;7412974;19;20333;-83
2024/02/21 13:58:49;;;;;;;2.85;1.08;;;;;;;;;;7410544;19;19918;-83
2024/02/21 14:01:35;;;;;;;1.95;0.98;;;;;;;;;;7411339;19;19922;-83
2024/02/21 14:04:20;;;;;;;4.28;1.30;;;;;;;;;;7410466;19;19926;-82
2024/02/21 14:07:04;;;;;;;3.22;1.00;;;;;;;;;;7412266;19;20419;-82
2024/02/21 14:09:53;;;;;;;4.72;0.82;;;;;;;;;;7408886;19;19910;-83
2024/02/21 14:12:45;;;;;;;5.43;1.33;;;;;;;;;;7412385;19;19978;-83
2024/02/21 14:15:34;;;;;;;2.65;0.93;;;;;;;;;;7415068;19;19914;-83
2024/02/21 14:18:18;;;;;;;3.33;1.45;;;;;;;;;;7415730;19;19919;-82
2024/02/21 14:21:07;;;;;;;4.88;1.35;;;;;;;;;;7413237;19;19923;-82
2024/02/21 14:23:57;;;;;;;;;;;;;;;;;;7420679;19;19982;-82
2024/02/21 14:26:46;;;;;;;3.35;1.02;;;;;;;;;;7414857;19;19932;-83
2024/02/21 14:29:35;;;;;;;5.18;1.38;;;;;;;;;;7417556;19;19915;-83
2024/02/21 14:32:20;;;;;;;5.05;1.25;;;;;;;;;;7411887;19;20030;-82
2024/02/21 14:35:09;;;;;;;12.73;1.40;;;;;;;;;;7419479;19;19914;-83
2024/02/21 14:38:01;;;;;;;2.78;1.25;;;;;;;;;;7413669;19;19931;-83
2024/02/21 14:40:45;;;;;;;5.88;1.55;;;;;;;;;;7414467;19;19933;-82
2024/02/21 14:43:32;;;;;;;4.47;1.42;;;;;;;;;;7419722;19;19911;-82
2024/02/21 14:46:19;;;;;;;4.95;2.13;;;;;;;;;;7415236;19;19907;-82
2024/02/21 14:49:07;;;;;;;2.75;1.10;;;;;;;;;;7415870;19;19994;-83
2024/02/21 14:51:54;;;;;;;5.88;1.50;;;;;;;;;;7414164;19;19923;-82
2024/02/21 14:54:48;;;;;;;8.93;1.30;;;;;;;;;;7419986;19;19918;-82
2024/02/21 14:57:36;;;;;;;3.42;1.10;;;;;;;;;;7413961;19;19930;-83
2024/02/21 15:00:29;;;;;;;3.50;1.20;;;;;;;;;;7418639;19;19910;-83
2024/02/21 15:03:19;;;;;;;2.72;1.05;;;;;;;;;;7421904;19;20019;-82
2024/02/21 15:06:06;;;;;;;3.78;1.23;;;;;;;;;;7418421;19;19926;-83
2024/02/21 15:08:52;;;;;;;7.05;1.45;;;;;;;;;;7414952;19;19935;-83
2024/02/21 15:11:37;;;;;;;4.90;1.20;;;;;;;;;;7418736;19;19969;-83
2024/02/21 15:14:23;;;;;;;2.88;1.20;;;;;;;;;;7417448;19;20295;-83
2024/02/21 15:17:08;;;;;;;4.03;1.08;;;;;;;;;;7415916;19;19919;-83
2024/02/21 15:20:00;;;;;;;5.45;1.50;;;;;;;;;;7417259;19;19919;-83
2024/02/21 15:22:44;;;;;;;1.65;0.80;;;;;;;;;;7417173;19;19930;-83
2024/02/21 15:25:31;;;;;;;5.45;1.35;;;;;;;;;;7416719;19;19918;-83
2024/02/21 15:28:20;;;;;;;5.47;1.13;;;;;;;;;;7413855;19;19914;-83
2024/02/21 15:31:11;;;;;;;5.38;1.45;;;;;;;;;;7416754;19;19922;-83
2024/02/21 15:33:59;;;;;;;4.03;1.20;;;;;;;;;;7415973;19;20302;-83
2024/02/21 15:36:45;;;;;;;4.80;0.98;;;;;;;;;;7416185;19;19914;-83
2024/02/21 15:39:30;;;;;;;3.38;0.90;;;;;;;;;;7415210;19;19936;-83
2024/02/21 15:42:14;;;;;;;4.20;1.38;;;;;;;;;;7416254;19;20262;-83
2024/02/21 15:45:04;;;;;;;5.30;1.83;;;;;;;;;;7413895;19;19914;-83
2024/02/21 15:47:54;;;;;;;7.13;1.77;;;;;;;;;;7417849;19;19922;-82
2024/02/21 15:50:38;;;;;;;7.65;2.83;;;;;;;;;;7419164;19;19947;-81
2024/02/21 15:53:25;;;;;;;8.13;3.17;;;;;;;;;;7417296;19;19938;-81
2024/02/21 15:56:12;;;;;;;6.15;2.15;;;;;;;;;;7417139;19;19910;-81
2024/02/21 15:58:57;;;;;;;7.00;2.85;;;;;;;;;;7420376;19;19919;-81
2024/02/21 16:01:44;;;;;;;5.43;3.00;;;;;;;;;;7418984;19;20523;-81
2024/02/21 16:04:31;;;;;;;6.22;3.20;;;;;;;;;;7419527;19;19973;-81
2024/02/21 16:07:15;;;;;;;3.65;1.83;;;;;;;;;;7416958;19;19917;-81
2024/02/21 16:10:02;;;;;;;4.70;1.95;;;;;;;;;;7419093;19;20257;-81
2024/02/21 16:12:50;;;;;;;4.18;1.80;;;;;;;;;;7414654;19;19962;-80
2024/02/21 16:15:34;;;;;;;4.70;1.80;;;;;;;;;;7410332;19;19926;-81
2024/02/21 16:18:24;;;;;;;5.75;1.80;;;;;;;;;;7410323;19;19925;-80
2024/02/21 16:21:08;;;;;;;6.78;1.83;;;;;;;;;;7414534;19;19922;-81
2024/02/21 16:23:53;;;;;;;5.18;1.63;;;;;;;;;;7417061;19;20343;-81
2024/02/21 16:26:42;;;;;;;4.85;1.50;;;;;;;;;;7417747;19;19919;-81
2024/02/21 16:29:30;;;;;;;6.85;1.48;;;;;;;;;;7419183;19;19914;-81
2024/02/21 16:32:17;;;;;;;4.60;1.50;;;;;;;;;;7418107;19;19919;-81
2024/02/21 16:35:04;;;;;;;4.75;1.33;;;;;;;;;;7415140;19;19925;-81
2024/02/21 16:37:51;;;;;;;7.40;1.55;;;;;;;;;;7415527;19;19919;-81
2024/02/21 16:40:40;;;;;;;5.63;1.52;;;;;;;;;;7413914;19;19925;-79
2024/02/21 16:43:29;;;;;;;4.15;1.60;;;;;;;;;;7409241;19;20357;-79
2024/02/21 16:46:19;;;;;;;4.30;1.50;;;;;;;;;;7408814;19;19922;-78
2024/02/21 16:49:03;;;;;;;2.90;1.27;;;;;;;;;;7408565;19;19918;-79